Quick Links (Output Below):   Max & Min Temps   /   Climate Reports   /   Zone Forecasts
River Forecasts   /   Forestry Forecasts   /   Aviation Forecasts   /   Radars   /   Features

Terminal Aerodrome Forecast (Arkadelphia)

Pick a Site:
Arkadelphia | El Dorado | Fayetteville | Fort Smith | Harrison | Highfill | Hot Springs | Jonesboro
Little Rock | Monticello | Mountain Home | Pine Bluff | Texarkana
 Forecast 

KADF 292339Z 3000/3024 17004KT P6SM VCTS SCT040CB BKN100
     FM300400 17003KT P6SM SCT100 BKN250
     FM301500 18005KT P6SM VCTS SCT035CB BKN250=


 Latest METARs (Observations) 
How to Decode METARs
00Z KADF 292356Z AUTO 00000KT 10SM CLR 30/26 A2990 RMK AO2 53003
         T03000255 10338 20300 SLP135 $
         
***** Today's Observations (Above) *****


23Z KADF 292256Z AUTO 14003KT 10SM CLR 31/24 A2988 RMK AO2 T03110244
         LTG DSNT NW SLP130 $
         
22Z KADF 292156Z AUTO 18006KT 10SM CLR 32/23 A2989 RMK AO2 T03160233
         SLP132 $
         
21Z KADF 292056Z AUTO 19007KT 10SM CLR 33/23 A2988 RMK AO2 56022
         T03270227 SLP130 $
         
20Z KADF 291956Z AUTO 17008KT 10SM FEW042 33/23 A2990 RMK AO2
         T03330227 SLP137 $
         
19Z KADF 291856Z AUTO 19009KT 10SM CLR 33/23 A2992 RMK AO2 T03330227
         SLP144 $
         
18Z KADF 291756Z AUTO 20006KT 10SM SCT035 SCT044 32/23 A2995 RMK AO2
         58003 T03160233 10327 20227 SLP152 $
         
17Z KADF 291656Z AUTO 21006KT 10SM FEW038 32/24 A2997 RMK AO2
         T03160238 SLP161 $
         
16Z KADF 291556Z AUTO 21006KT 10SM SCT038 31/24 A2996 RMK AO2
         T03110238 SLP159 $
         
15Z KADF 291456Z AUTO 20005KT 10SM CLR 30/23 A2996 RMK AO2 58001
         T03000233 SLP156 $
         
***** Yesterday's Observations (Above) *****


Back to Main Page
http://www.srh.noaa.gov/lzk/qfcst.php

USA.gov is the U.S. government's official web portal to all federal, state and local government web resources and services.